Central Virginia Flyers


Central Virginia Flyers is a 10 member flying club based in Richmond, VA at Hanover County Airport (KOFP). We own N787AT, a 1977 Cessna 172 with 180hp conversion. If you are interested in membership, please contact Brenton at [email protected]


Aviation Digital Data Service (ADDS)

Output produced by METARs form (0125 UTC 23 February 2019)
found at http://aviationweather.gov/metar/data/
 
KOFP 230054Z AUTO 00000KT 7SM OVC080 06/05 A3043 RMK AO2 RAE46 SLP305 P0005 T00610050
KRIC 230054Z 00000KT 10SM -RA SCT050 OVC090 07/05 A3041 RMK AO2 SLP302 P0002 T00670050
KRIC 222339Z 2300/2324 VRB03KT P6SM -RA OVC090 
     FM231500 09005KT 5SM RA OVC025 
     FM232100 08005KT 4SM RA OVC010